createdAt,value
2022-11-15T00:00:57.500Z,10.50
2022-11-15T00:03:26.454Z,11.87
2022-11-15T00:05:53.850Z,11.00
2022-11-15T00:08:24.200Z,10.27
2022-11-15T00:10:58.204Z,10.27
2022-11-15T00:13:25.318Z,11.17
2022-11-15T00:15:52.458Z,11.83
2022-11-15T00:18:19.642Z,10.83
2022-11-15T00:20:46.704Z,9.37
2022-11-15T00:23:13.780Z,9.23
2022-11-15T00:25:40.442Z,11.43
2022-11-15T00:28:07.505Z,11.87
2022-11-15T00:30:35.621Z,11.03
2022-11-15T00:33:06.449Z,9.47
2022-11-15T00:35:34.485Z,11.17
2022-11-15T00:38:02.139Z,9.30
2022-11-15T00:40:29.372Z,11.87
2022-11-15T00:42:56.416Z,10.47
2022-11-15T00:45:23.650Z,12.30
2022-11-15T00:47:50.702Z,11.67
2022-11-15T00:50:17.478Z,11.27
2022-11-15T00:52:44.613Z,13.93
2022-11-15T00:55:16.228Z,12.33
2022-11-15T00:57:43.464Z,11.47
2022-11-15T01:00:10.904Z,11.37
2022-11-15T01:02:37.604Z,11.33
2022-11-15T01:05:04.778Z,11.43
2022-11-15T01:07:31.464Z,12.57
2022-11-15T01:09:58.611Z,8.73
2022-11-15T01:12:25.668Z,9.90
2022-11-15T01:14:52.358Z,10.20
2022-11-15T01:17:19.456Z,10.57
2022-11-15T01:19:46.511Z,9.77
2022-11-15T01:22:13.622Z,10.67
2022-11-15T01:24:40.664Z,10.63
2022-11-15T01:27:07.914Z,12.67
2022-11-15T01:29:34.747Z,12.53
2022-11-15T01:32:01.804Z,14.10
2022-11-15T01:34:28.976Z,11.83
2022-11-15T01:36:56.013Z,11.33
2022-11-15T01:39:23.124Z,12.07
2022-11-15T01:41:49.776Z,11.73
2022-11-15T01:44:34.933Z,11.60
2022-11-15T01:47:10.226Z,8.90
2022-11-15T01:49:41.271Z,10.23
2022-11-15T01:52:17.307Z,10.37
2022-11-15T01:54:44.519Z,11.63
2022-11-15T01:57:12.893Z,9.43
2022-11-15T01:59:42.924Z,9.83
2022-11-15T02:02:09.951Z,10.70
2022-11-15T02:04:41.666Z,10.13
2022-11-15T02:07:10.844Z,12.47
2022-11-15T02:09:38.682Z,9.43
2022-11-15T02:12:06.879Z,9.97
2022-11-15T02:14:34.110Z,11.00
2022-11-15T02:17:23.082Z,10.93
2022-11-15T02:20:20.768Z,14.47
2022-11-15T02:23:17.818Z,11.67
2022-11-15T02:26:15.586Z,11.27
2022-11-15T02:29:02.414Z,10.37
2022-11-15T02:31:50.349Z,12.30
2022-11-15T02:34:33.484Z,10.53
2022-11-15T02:37:15.269Z,11.63
2022-11-15T02:39:51.898Z,10.77
2022-11-15T02:42:45.491Z,9.40
2022-11-15T02:45:18.554Z,9.47
2022-11-15T02:47:49.143Z,10.17
2022-11-15T02:50:22.084Z,10.23
2022-11-15T02:52:52.337Z,9.83
2022-11-15T02:55:37.004Z,10.27
2022-11-15T02:58:06.442Z,10.03
2022-11-15T03:00:39.514Z,9.33
2022-11-15T03:03:25.421Z,7.70
2022-11-15T03:06:28.397Z,7.83
2022-11-15T03:09:37.898Z,7.77
2022-11-15T03:12:26.216Z,11.23
2022-11-15T03:15:01.249Z,9.57
2022-11-15T03:17:34.725Z,9.33
2022-11-15T03:20:05.227Z,9.93
2022-11-15T03:22:36.969Z,10.70
2022-11-15T03:25:07.801Z,10.83
2022-11-15T03:27:41.469Z,9.93
2022-11-15T03:30:09.934Z,11.00
2022-11-15T03:32:43.019Z,7.70
2022-11-15T03:35:16.976Z,7.57
2022-11-15T03:38:12.485Z,8.47
2022-11-15T03:40:46.580Z,7.97
2022-11-15T03:43:19.920Z,8.00
2022-11-15T03:45:56.121Z,8.10
2022-11-15T03:48:27.459Z,7.73
2022-11-15T03:50:54.797Z,6.93
2022-11-15T03:53:21.673Z,8.97
2022-11-15T03:55:48.330Z,7.83
2022-11-15T03:58:15.405Z,8.50
2022-11-15T04:00:42.136Z,9.53
2022-11-15T04:03:08.989Z,9.77
2022-11-15T04:05:36.051Z,7.70
2022-11-15T04:08:02.752Z,10.43
2022-11-15T04:10:29.770Z,6.73
2022-11-15T04:12:56.415Z,6.87
2022-11-15T04:15:24.782Z,9.93
2022-11-15T04:17:53.915Z,7.67
2022-11-15T04:20:40.726Z,7.93
2022-11-15T04:23:34.673Z,7.53
2022-11-15T04:26:06.252Z,7.53
2022-11-15T04:28:32.904Z,7.40
2022-11-15T04:31:00.053Z,8.57
2022-11-15T04:33:27.248Z,9.57
2022-11-15T04:36:12.767Z,9.23
2022-11-15T04:38:39.471Z,7.80
2022-11-15T04:41:06.153Z,8.40
2022-11-15T04:43:33.506Z,7.53
2022-11-15T04:46:00.439Z,8.03
2022-11-15T04:48:27.527Z,8.53
2022-11-15T04:50:54.165Z,8.20
2022-11-15T04:53:20.858Z,7.77
2022-11-15T04:55:48.232Z,46.80
2022-11-15T04:58:14.873Z,24.60
2022-11-15T05:00:42.012Z,12.97
2022-11-15T05:03:28.884Z,11.70
2022-11-15T05:05:55.708Z,10.10
2022-11-15T05:08:22.472Z,9.50
2022-11-15T05:10:49.082Z,9.90
2022-11-15T05:13:16.166Z,13.13
2022-11-15T05:15:42.824Z,9.20
2022-11-15T05:18:09.539Z,8.43
2022-11-15T05:20:36.706Z,8.63
2022-11-15T05:23:03.817Z,7.03
2022-11-15T05:25:30.512Z,7.57
2022-11-15T05:27:57.619Z,8.43
2022-11-15T05:30:24.720Z,8.67
2022-11-15T05:32:51.766Z,6.07
2022-11-15T05:35:36.603Z,6.27
2022-11-15T05:38:03.649Z,6.70
2022-11-15T05:40:31.281Z,7.30
2022-11-15T05:42:58.665Z,7.97
2022-11-15T05:45:27.041Z,7.07
2022-11-15T05:47:57.659Z,7.70
2022-11-15T05:50:24.483Z,8.40
2022-11-15T05:52:52.176Z,12.20
2022-11-15T05:55:19.241Z,13.53
2022-11-15T05:57:46.592Z,10.77
2022-11-15T06:00:13.802Z,9.70
2022-11-15T06:02:40.863Z,9.57
2022-11-15T06:05:07.979Z,6.97
2022-11-15T06:07:35.134Z,6.63
2022-11-15T06:10:02.163Z,7.00
2022-11-15T06:12:29.244Z,6.23
2022-11-15T06:14:55.908Z,6.93
2022-11-15T06:17:22.978Z,8.10
2022-11-15T06:19:50.032Z,6.07
2022-11-15T06:22:16.674Z,6.53
2022-11-15T06:24:44.876Z,6.63
2022-11-15T06:27:14.630Z,7.10
2022-11-15T06:29:41.681Z,6.47
2022-11-15T06:32:08.969Z,6.67
2022-11-15T06:34:36.843Z,6.50
2022-11-15T06:37:04.234Z,6.30
2022-11-15T06:39:31.278Z,10.33
2022-11-15T06:41:58.347Z,10.50
2022-11-15T06:44:24.966Z,8.27
2022-11-15T06:46:51.611Z,10.80
2022-11-15T06:49:18.640Z,11.40
2022-11-15T06:51:45.358Z,10.50
2022-11-15T06:54:12.453Z,7.37
2022-11-15T06:56:39.274Z,7.13
2022-11-15T06:59:05.894Z,5.23
2022-11-15T07:01:33.046Z,6.67
2022-11-15T07:04:00.158Z,6.03
2022-11-15T07:06:27.193Z,8.47
2022-11-15T07:08:54.277Z,6.13
2022-11-15T07:11:21.327Z,5.97
2022-11-15T07:13:48.046Z,6.60
2022-11-15T07:16:14.742Z,7.70
2022-11-15T07:18:41.830Z,6.73
2022-11-15T07:21:11.023Z,6.23
2022-11-15T07:23:40.829Z,7.37
2022-11-15T07:26:08.648Z,6.13
2022-11-15T07:28:36.354Z,7.93
2022-11-15T07:31:08.586Z,6.83
2022-11-15T07:33:35.844Z,6.60
2022-11-15T07:36:04.330Z,6.03
2022-11-15T07:38:31.537Z,6.67
2022-11-15T07:41:03.758Z,5.50
2022-11-15T07:43:31.557Z,6.40
2022-11-15T07:45:59.600Z,6.13
2022-11-15T07:48:35.620Z,11.10
2022-11-15T07:51:15.637Z,11.97
2022-11-15T07:53:43.820Z,9.57
2022-11-15T07:56:11.185Z,12.33
2022-11-15T07:58:37.824Z,8.93
2022-11-15T08:01:09.892Z,13.73
2022-11-15T08:03:37.508Z,8.50
2022-11-15T08:06:04.419Z,5.63
2022-11-15T08:08:31.516Z,5.97
2022-11-15T08:11:01.415Z,5.33
2022-11-15T08:13:28.861Z,4.27
2022-11-15T08:16:02.996Z,5.13
2022-11-15T08:18:30.227Z,4.33
2022-11-15T08:21:00.735Z,3.80
2022-11-15T08:23:28.636Z,8.33
2022-11-15T08:26:02.013Z,6.17
2022-11-15T08:28:28.826Z,7.40
2022-11-15T08:30:56.014Z,8.30
2022-11-15T08:33:22.857Z,10.57
2022-11-15T08:35:49.613Z,5.80
2022-11-15T08:38:16.938Z,5.60
2022-11-15T08:40:43.741Z,7.37
2022-11-15T08:43:10.859Z,6.57
2022-11-15T08:45:37.661Z,3.70
2022-11-15T08:48:05.104Z,4.97
2022-11-15T08:50:31.817Z,4.07
2022-11-15T08:52:59.094Z,4.87
2022-11-15T08:55:25.805Z,5.07
2022-11-15T08:57:53.536Z,5.00
2022-11-15T09:00:23.944Z,5.60
2022-11-15T09:02:50.608Z,4.33
2022-11-15T09:05:17.671Z,3.23
2022-11-15T09:07:44.736Z,4.43
2022-11-15T09:10:12.051Z,3.13
2022-11-15T09:12:38.878Z,3.33
2022-11-15T09:15:07.219Z,3.33
2022-11-15T09:17:34.297Z,3.43
2022-11-15T09:20:00.946Z,3.77
2022-11-15T09:22:27.765Z,2.57
2022-11-15T09:24:54.808Z,5.27
2022-11-15T09:27:21.888Z,3.00
2022-11-15T09:29:48.948Z,4.93
2022-11-15T09:32:15.681Z,2.60
2022-11-15T09:34:42.853Z,2.13
2022-11-15T09:37:09.499Z,3.23
2022-11-15T09:39:36.536Z,4.47
2022-11-15T09:42:27.104Z,3.37
2022-11-15T09:45:00.743Z,3.73
2022-11-15T09:47:39.176Z,5.20
2022-11-15T09:50:15.137Z,3.37
2022-11-15T09:52:45.612Z,2.60
2022-11-15T09:55:17.229Z,4.33
2022-11-15T09:58:16.717Z,5.27
2022-11-15T10:00:49.532Z,4.70
2022-11-15T10:03:21.453Z,2.83
2022-11-15T10:05:50.689Z,3.63
2022-11-15T10:08:36.786Z,4.60
2022-11-15T10:11:36.043Z,6.30
2022-11-15T10:14:13.210Z,4.07
2022-11-15T10:17:00.826Z,6.90
2022-11-15T10:19:45.687Z,4.97
2022-11-15T10:22:41.515Z,4.47
2022-11-15T10:25:21.162Z,4.10
2022-11-15T10:28:00.136Z,7.00
2022-11-15T10:30:54.158Z,5.60
2022-11-15T10:33:34.697Z,4.50
2022-11-15T10:36:10.258Z,2.07
2022-11-15T10:38:51.953Z,2.47
2022-11-15T10:41:21.684Z,2.20
2022-11-15T10:44:09.559Z,3.10
2022-11-15T10:46:47.008Z,2.07
2022-11-15T10:49:22.650Z,5.60
2022-11-15T10:52:00.010Z,3.27
2022-11-15T10:54:31.305Z,2.70
2022-11-15T10:57:01.855Z,4.43
2022-11-15T10:59:37.638Z,4.80
2022-11-15T11:02:24.977Z,3.13
2022-11-15T11:04:52.954Z,2.13
2022-11-15T11:07:28.697Z,3.40
2022-11-15T11:09:59.954Z,3.57
2022-11-15T11:12:31.212Z,1.77
2022-11-15T11:14:59.226Z,2.43
2022-11-15T11:17:32.614Z,3.20
2022-11-15T11:20:29.462Z,4.73
2022-11-15T11:23:17.210Z,4.17
2022-11-15T11:26:07.110Z,2.43
2022-11-15T11:28:45.947Z,2.07
2022-11-15T11:31:24.472Z,4.70
2022-11-15T11:34:03.197Z,3.13
2022-11-15T11:36:41.981Z,4.20
2022-11-15T11:39:14.652Z,4.73
2022-11-15T11:42:00.231Z,4.50
2022-11-15T11:44:36.800Z,3.20
2022-11-15T11:47:22.385Z,2.30
2022-11-15T11:50:03.213Z,5.53
2022-11-15T11:52:35.565Z,4.63
2022-11-15T11:55:20.973Z,2.00
2022-11-15T11:58:10.920Z,3.93
2022-11-15T12:01:01.068Z,3.57
2022-11-15T12:03:43.036Z,3.20
2022-11-15T12:06:33.816Z,2.93
2022-11-15T12:09:30.291Z,2.03
2022-11-15T12:12:09.918Z,3.40
2022-11-15T12:14:48.459Z,2.23
2022-11-15T12:17:26.290Z,2.67
2022-11-15T12:19:58.540Z,2.97
2022-11-15T12:22:45.599Z,2.43
2022-11-15T12:25:18.012Z,3.10
2022-11-15T12:28:12.870Z,4.37
2022-11-15T12:31:11.632Z,3.70
2022-11-15T12:33:45.221Z,3.67
2022-11-15T12:36:23.893Z,2.30
2022-11-15T12:38:56.180Z,3.10
2022-11-15T12:41:36.821Z,2.73
2022-11-15T12:44:04.739Z,3.57
2022-11-15T12:46:31.775Z,2.30
2022-11-15T12:49:22.523Z,5.03
2022-11-15T12:51:49.556Z,5.00
2022-11-15T12:54:25.037Z,4.27
2022-11-15T12:57:03.681Z,3.47
2022-11-15T12:59:48.845Z,3.60
2022-11-15T13:02:34.548Z,2.60
2022-11-15T13:05:23.457Z,3.70
2022-11-15T13:07:50.162Z,2.33
2022-11-15T13:10:17.190Z,3.40
2022-11-15T13:12:46.827Z,3.00
2022-11-15T13:15:13.912Z,2.80
2022-11-15T13:17:52.267Z,3.17
2022-11-15T13:20:23.130Z,4.57
2022-11-15T13:23:04.989Z,5.03
2022-11-15T13:25:40.477Z,4.53
2022-11-15T13:28:16.212Z,3.43
2022-11-15T13:30:57.121Z,7.33
2022-11-15T13:33:37.304Z,4.97
2022-11-15T13:36:04.385Z,3.90
2022-11-15T13:38:31.909Z,3.33
2022-11-15T13:41:00.291Z,3.07
2022-11-15T13:43:30.233Z,2.90
2022-11-15T13:46:21.020Z,4.00
2022-11-15T13:49:02.139Z,5.23
2022-11-15T13:51:29.240Z,7.87
2022-11-15T13:54:08.933Z,4.27
2022-11-15T13:56:36.536Z,4.73
2022-11-15T13:59:20.746Z,2.80
2022-11-15T14:01:47.928Z,3.40
2022-11-15T14:04:19.288Z,3.57
2022-11-15T14:06:53.009Z,4.20
2022-11-15T14:09:36.295Z,3.30
2022-11-15T14:12:30.850Z,7.70
2022-11-15T14:14:59.362Z,4.40
2022-11-15T14:17:31.890Z,3.77
2022-11-15T14:19:59.061Z,4.47
2022-11-15T14:22:30.691Z,3.77
2022-11-15T14:25:30.511Z,4.73
2022-11-15T14:28:24.182Z,2.53
2022-11-15T14:30:55.900Z,2.97
2022-11-15T14:33:36.718Z,4.50
2022-11-15T14:36:21.329Z,2.87
2022-11-15T14:38:48.706Z,4.13
2022-11-15T14:41:24.244Z,3.80
2022-11-15T14:43:52.345Z,2.60
2022-11-15T14:46:19.365Z,4.43
2022-11-15T14:48:46.476Z,3.13
2022-11-15T14:51:18.533Z,3.73
2022-11-15T14:53:46.494Z,3.77
2022-11-15T14:56:13.653Z,2.40
2022-11-15T14:58:40.803Z,4.90
2022-11-15T15:01:15.120Z,3.80
2022-11-15T15:03:41.872Z,3.17
2022-11-15T15:06:15.060Z,3.83
2022-11-15T15:08:44.434Z,4.23
2022-11-15T15:11:26.934Z,3.93
2022-11-15T15:13:57.279Z,3.13
2022-11-15T15:16:28.217Z,3.50
2022-11-15T15:18:55.316Z,4.77
2022-11-15T15:21:22.407Z,3.40
2022-11-15T15:23:49.516Z,3.30
2022-11-15T15:26:16.609Z,2.97
2022-11-15T15:28:43.669Z,4.70
2022-11-15T15:31:13.190Z,3.57
2022-11-15T15:33:39.906Z,4.17
2022-11-15T15:36:07.094Z,2.40
2022-11-15T15:38:34.513Z,6.20
2022-11-15T15:41:02.879Z,3.10
2022-11-15T15:43:29.744Z,4.77
2022-11-15T15:45:56.407Z,2.93
2022-11-15T15:48:23.472Z,4.17
2022-11-15T15:50:50.679Z,3.53
2022-11-15T15:53:18.262Z,5.57
2022-11-15T15:55:45.362Z,5.93
2022-11-15T15:58:12.117Z,3.30
2022-11-15T16:00:39.711Z,3.00
2022-11-15T16:03:06.799Z,3.17
2022-11-15T16:05:33.862Z,4.47
2022-11-15T16:08:00.899Z,3.00
2022-11-15T16:10:31.183Z,2.70
2022-11-15T16:12:58.838Z,2.53
2022-11-15T16:15:27.845Z,6.87
2022-11-15T16:17:56.935Z,2.47
2022-11-15T16:20:31.533Z,3.00
2022-11-15T16:22:58.695Z,4.87
2022-11-15T16:25:26.168Z,2.80
2022-11-15T16:27:53.213Z,4.97
2022-11-15T16:30:22.021Z,3.20
2022-11-15T16:32:49.027Z,3.03
2022-11-15T16:35:17.125Z,5.07
2022-11-15T16:37:46.471Z,3.77
2022-11-15T16:40:27.176Z,2.20
2022-11-15T16:42:54.015Z,3.40
2022-11-15T16:45:21.095Z,3.27
2022-11-15T16:47:48.239Z,3.70
2022-11-15T16:50:24.728Z,2.37
2022-11-15T16:52:53.204Z,3.03
2022-11-15T16:55:21.199Z,3.97
2022-11-15T16:57:48.607Z,3.47
2022-11-15T17:00:17.202Z,3.57
2022-11-15T17:02:48.469Z,2.10
2022-11-15T17:05:20.519Z,3.03
2022-11-15T17:07:50.399Z,3.20
2022-11-15T17:10:17.648Z,3.27
2022-11-15T17:12:44.907Z,3.77
2022-11-15T17:15:13.364Z,4.47
2022-11-15T17:17:40.913Z,2.97
2022-11-15T17:20:18.507Z,2.67
2022-11-15T17:22:47.191Z,5.70
2022-11-15T17:25:14.406Z,3.07
2022-11-15T17:27:41.474Z,4.03
2022-11-15T17:30:09.910Z,5.13
2022-11-15T17:32:37.472Z,4.03
2022-11-15T17:35:11.950Z,3.17
2022-11-15T17:37:42.065Z,2.90
2022-11-15T17:40:09.328Z,2.97
2022-11-15T17:42:36.100Z,2.13
2022-11-15T17:45:08.179Z,2.30
2022-11-15T17:47:36.785Z,3.43
2022-11-15T17:50:03.999Z,3.23
2022-11-15T17:52:31.144Z,3.33
2022-11-15T17:54:57.797Z,4.03
2022-11-15T17:57:24.854Z,4.03
2022-11-15T17:59:51.571Z,2.50
2022-11-15T18:02:19.383Z,2.63
2022-11-15T18:04:46.449Z,3.03
2022-11-15T18:07:14.015Z,3.00
2022-11-15T18:09:43.804Z,3.53
2022-11-15T18:12:11.632Z,4.33
2022-11-15T18:14:38.461Z,3.67
2022-11-15T18:17:05.531Z,3.10
2022-11-15T18:19:32.250Z,3.57
2022-11-15T18:22:00.792Z,3.20
2022-11-15T18:24:33.437Z,3.90
2022-11-15T18:27:01.766Z,5.40
2022-11-15T18:29:28.993Z,3.33
2022-11-15T18:31:56.318Z,5.20
2022-11-15T18:34:33.978Z,5.17
2022-11-15T18:37:01.301Z,5.03
2022-11-15T18:39:28.392Z,5.10
2022-11-15T18:41:55.108Z,6.23
2022-11-15T18:44:21.859Z,5.53
2022-11-15T18:46:49.501Z,4.80
2022-11-15T18:49:17.039Z,8.13
2022-11-15T18:51:44.073Z,6.53
2022-11-15T18:54:12.868Z,6.17
2022-11-15T18:56:40.579Z,7.73
2022-11-15T18:59:08.644Z,8.50
2022-11-15T19:01:38.403Z,6.33
2022-11-15T19:04:11.178Z,9.57
2022-11-15T19:06:40.493Z,7.90
2022-11-15T19:09:08.561Z,7.23
2022-11-15T19:11:38.736Z,8.07
2022-11-15T19:14:10.666Z,6.50
2022-11-15T19:16:40.034Z,7.50
2022-11-15T19:19:19.092Z,8.60
2022-11-15T19:21:46.372Z,9.40
2022-11-15T19:24:13.445Z,8.20
2022-11-15T19:26:40.989Z,11.30
2022-11-15T19:29:10.469Z,7.57
2022-11-15T19:31:37.532Z,8.27
2022-11-15T19:34:06.075Z,9.73
2022-11-15T19:36:38.471Z,9.40
2022-11-15T19:39:09.692Z,12.43
2022-11-15T19:41:38.483Z,13.67
2022-11-15T19:44:05.827Z,8.20
2022-11-15T19:46:33.073Z,9.97
2022-11-15T19:48:59.926Z,8.67
2022-11-15T19:51:29.302Z,11.10
2022-11-15T19:53:58.568Z,12.03
2022-11-15T19:56:25.342Z,11.07
2022-11-15T19:58:54.114Z,11.03
2022-11-15T20:01:32.293Z,10.80
2022-11-15T20:04:00.056Z,10.37
2022-11-15T20:06:29.531Z,10.27
2022-11-15T20:08:56.628Z,11.67
2022-11-15T20:11:23.962Z,12.87
2022-11-15T20:13:50.660Z,12.97
2022-11-15T20:16:20.247Z,11.93
2022-11-15T20:18:48.217Z,13.00
2022-11-15T20:21:15.352Z,14.87
2022-11-15T20:23:42.891Z,12.77
2022-11-15T20:26:10.564Z,13.70
2022-11-15T20:28:39.178Z,12.17
2022-11-15T20:31:06.921Z,11.87
2022-11-15T20:33:33.610Z,9.93
2022-11-15T20:36:08.064Z,10.93
2022-11-15T20:38:35.471Z,10.17
2022-11-15T20:41:02.879Z,8.87
2022-11-15T20:43:29.615Z,9.90
2022-11-15T20:45:56.344Z,9.70
2022-11-15T20:48:23.507Z,11.73
2022-11-15T20:50:50.215Z,11.60
2022-11-15T20:53:19.045Z,9.60
2022-11-15T20:55:48.392Z,9.93
2022-11-15T20:58:16.487Z,9.53
2022-11-15T21:00:44.858Z,12.17
2022-11-15T21:03:12.892Z,14.30
2022-11-15T21:05:41.227Z,10.40
2022-11-15T21:08:12.498Z,9.50
2022-11-15T21:11:04.221Z,11.23
2022-11-15T21:13:31.272Z,12.07
2022-11-15T21:15:58.319Z,11.80
2022-11-15T21:18:25.544Z,12.53
2022-11-15T21:20:53.682Z,10.50
2022-11-15T21:23:21.081Z,11.87
2022-11-15T21:25:51.610Z,10.30
2022-11-15T21:28:18.659Z,11.17
2022-11-15T21:30:56.442Z,11.57
2022-11-15T21:33:23.881Z,10.50
2022-11-15T21:35:51.542Z,12.67
2022-11-15T21:38:18.322Z,9.70
2022-11-15T21:40:45.461Z,9.17
2022-11-15T21:43:12.573Z,11.77
2022-11-15T21:45:39.643Z,11.03
2022-11-15T21:48:07.447Z,11.87
2022-11-15T21:50:34.577Z,9.03
2022-11-15T21:53:01.276Z,10.40
2022-11-15T21:55:27.917Z,9.90
2022-11-15T21:57:54.584Z,8.67
2022-11-15T22:00:39.912Z,11.97
2022-11-15T22:03:06.554Z,8.23
2022-11-15T22:05:33.320Z,11.80
2022-11-15T22:08:00.412Z,9.10
2022-11-15T22:10:27.559Z,10.00
2022-11-15T22:12:54.668Z,10.47
2022-11-15T22:15:21.330Z,8.30
2022-11-15T22:18:00.261Z,10.10
2022-11-15T22:20:44.043Z,10.83
2022-11-15T22:23:11.739Z,9.00
2022-11-15T22:25:38.836Z,10.83
2022-11-15T22:28:05.650Z,10.87
2022-11-15T22:30:32.801Z,7.73
2022-11-15T22:32:59.519Z,8.13
2022-11-15T22:35:26.237Z,11.50
2022-11-15T22:37:53.023Z,10.37
2022-11-15T22:40:20.210Z,7.10
2022-11-15T22:42:47.370Z,8.67
2022-11-15T22:45:14.126Z,6.63
2022-11-15T22:47:40.820Z,9.43
2022-11-15T22:50:08.185Z,9.87
2022-11-15T22:52:35.292Z,7.10
2022-11-15T22:55:02.419Z,8.10
2022-11-15T22:57:29.165Z,9.87
2022-11-15T22:59:56.297Z,11.40
2022-11-15T23:02:23.429Z,13.57
2022-11-15T23:04:50.523Z,13.13
2022-11-15T23:07:17.323Z,9.40
2022-11-15T23:09:47.761Z,8.67
2022-11-15T23:12:35.959Z,8.00
2022-11-15T23:15:03.083Z,9.37
2022-11-15T23:17:30.704Z,11.17
2022-11-15T23:19:57.579Z,8.50
2022-11-15T23:22:43.041Z,8.23
2022-11-15T23:25:09.769Z,8.07
2022-11-15T23:27:36.475Z,7.23
2022-11-15T23:30:22.632Z,11.97
2022-11-15T23:33:08.482Z,8.53
2022-11-15T23:35:35.680Z,12.03
2022-11-15T23:38:02.427Z,10.50
2022-11-15T23:40:29.536Z,9.07
2022-11-15T23:42:57.927Z,11.13
2022-11-15T23:45:24.665Z,10.80
2022-11-15T23:47:54.718Z,8.93
2022-11-15T23:50:25.245Z,11.70
2022-11-15T23:52:51.936Z,11.40
2022-11-15T23:55:19.017Z,9.57
2022-11-15T23:57:46.101Z,7.83
